Time,TemperatureF,DewpointF,PressureIn,WindDirection,WindDirectionDegrees,WindSpeedMPH,WindSpeedGustMPH,Humidity,HourlyPrecipIn,Conditions,Clouds,dailyrainin,SoftwareType,DateUTC
2013-09-08 00:00:00,63.6,56.9,29.85,ENE,68,4.0,9.0,79,0.00,,,0.00,VWS V14.01,2013-09-08 05:00:00,
2013-09-08 00:15:00,63.4,57.0,29.84,ENE,68,4.0,11.0,80,0.00,,,0.00,VWS V14.01,2013-09-08 05:15:00,
2013-09-08 00:30:00,63.1,57.1,29.85,NE,45,3.0,9.0,81,0.00,,,0.00,VWS V14.01,2013-09-08 05:30:00,
2013-09-08 00:45:00,63.0,57.0,29.86,NE,45,4.0,11.0,81,0.00,,,0.00,VWS V14.01,2013-09-08 05:45:00,
2013-09-08 01:00:00,62.9,57.2,29.86,NE,45,3.0,8.0,82,0.00,,,0.00,VWS V14.01,2013-09-08 06:00:00,
2013-09-08 01:15:00,62.8,57.5,29.86,NE,45,2.0,9.0,83,0.00,,,0.00,VWS V14.01,2013-09-08 06:15:00,
2013-09-08 01:30:00,62.7,57.4,29.87,NE,45,2.0,7.0,83,0.00,,,0.00,VWS V14.01,2013-09-08 06:30:00,
2013-09-08 01:45:00,62.5,57.5,29.87,NNE,22,2.0,6.0,84,0.00,,,0.00,VWS V14.01,2013-09-08 06:45:00,
2013-09-08 02:00:00,62.1,57.5,29.87,NNE,22,2.0,7.0,85,0.00,,,0.00,VWS V14.01,2013-09-08 07:00:00,
2013-09-08 02:15:00,61.9,57.6,29.85,NE,45,2.0,6.0,86,0.00,,,0.00,VWS V14.01,2013-09-08 07:15:00,
2013-09-08 02:30:00,61.9,57.6,29.85,NE,45,3.0,9.0,86,0.00,,,0.00,VWS V14.01,2013-09-08 07:30:00,
2013-09-08 02:45:00,61.8,57.2,29.85,NE,45,3.0,6.0,85,0.00,,,0.00,VWS V14.01,2013-09-08 07:45:00,
2013-09-08 03:00:00,61.5,57.2,29.83,NE,45,2.0,6.0,86,0.00,,,0.00,VWS V14.01,2013-09-08 08:00:00,
2013-09-08 03:15:00,61.4,56.8,29.83,NE,45,3.0,7.0,85,0.00,,,0.00,VWS V14.01,2013-09-08 08:15:00,
2013-09-08 03:30:00,61.5,56.9,29.82,NE,45,3.0,9.0,85,0.00,,,0.00,VWS V14.01,2013-09-08 08:30:00,
2013-09-08 03:45:00,61.7,56.7,29.83,NE,45,2.0,6.0,84,0.00,,,0.00,VWS V14.01,2013-09-08 08:45:00,
2013-09-08 04:00:00,61.6,56.6,29.83,NE,45,3.0,7.0,84,0.00,,,0.00,VWS V14.01,2013-09-08 09:00:00,
2013-09-08 04:15:00,61.5,56.9,29.83,NNE,22,2.0,4.0,85,0.00,,,0.00,VWS V14.01,2013-09-08 09:15:00,
2013-09-08 04:30:00,61.3,56.7,29.82,NE,45,2.0,5.0,85,0.00,,,0.00,VWS V14.01,2013-09-08 09:30:00,
2013-09-08 04:45:00,61.1,56.5,29.83,NE,45,2.0,4.0,85,0.00,,,0.00,VWS V14.01,2013-09-08 09:45:00,
2013-09-08 05:00:00,60.9,56.6,29.83,North,0,2.0,4.0,86,0.00,,,0.00,VWS V14.01,2013-09-08 10:00:00,
2013-09-08 05:15:00,60.8,56.8,29.84,NE,45,1.0,4.0,87,0.00,,,0.00,VWS V14.01,2013-09-08 10:15:00,
2013-09-08 05:30:00,60.9,56.6,29.84,NE,45,1.0,5.0,86,0.00,,,0.00,VWS V14.01,2013-09-08 10:30:00,
2013-09-08 05:45:00,60.8,56.5,29.83,NE,45,2.0,4.0,86,0.00,,,0.00,VWS V14.01,2013-09-08 10:45:00,
2013-09-08 06:00:00,60.8,56.8,29.82,NE,45,2.0,7.0,87,0.00,,,0.00,VWS V14.01,2013-09-08 11:00:00,
2013-09-08 06:15:00,60.8,56.8,29.82,NE,45,2.0,5.0,87,0.00,,,0.00,VWS V14.01,2013-09-08 11:15:00,
2013-09-08 06:30:00,60.7,56.7,29.82,NE,45,2.0,5.0,87,0.00,,,0.00,VWS V14.01,2013-09-08 11:30:00,
2013-09-08 06:45:00,60.8,56.5,29.82,NNE,22,1.0,3.0,86,0.00,,,0.00,VWS V14.01,2013-09-08 11:45:00,
2013-09-08 07:00:00,60.9,56.6,29.82,ENE,68,1.0,3.0,86,0.00,,,0.00,VWS V14.01,2013-09-08 12:00:00,
2013-09-08 07:15:00,60.7,56.7,29.81,NE,45,1.0,3.0,87,0.00,,,0.00,VWS V14.01,2013-09-08 12:15:00,
2013-09-08 07:30:00,60.6,56.9,29.81,NE,45,1.0,3.0,88,0.00,,,0.00,VWS V14.01,2013-09-08 12:30:00,
2013-09-08 07:45:00,60.6,56.9,29.80,ENE,68,0.0,2.0,88,0.00,,,0.00,VWS V14.01,2013-09-08 12:45:00,
2013-09-08 08:00:00,60.3,57.0,29.79,ENE,68,1.0,3.0,89,0.00,,,0.00,VWS V14.01,2013-09-08 13:00:00,
2013-09-08 08:15:00,60.0,56.7,29.78,NNE,22,2.0,6.0,89,0.00,,,0.00,VWS V14.01,2013-09-08 13:15:00,
2013-09-08 08:30:00,60.2,56.9,29.78,NE,45,2.0,7.0,89,0.00,,,0.00,VWS V14.01,2013-09-08 13:30:00,
2013-09-08 08:45:00,60.2,56.5,29.78,NNE,22,3.0,8.0,88,0.00,,,0.00,VWS V14.01,2013-09-08 13:45:00,
2013-09-08 09:00:00,60.4,56.7,29.78,NE,45,3.0,7.0,88,0.00,,,0.00,VWS V14.01,2013-09-08 14:00:00,
2013-09-08 09:15:00,60.8,57.1,29.78,NE,45,3.0,8.0,88,0.00,,,0.00,VWS V14.01,2013-09-08 14:15:00,
2013-09-08 09:30:00,61.0,57.0,29.77,NE,45,3.0,7.0,87,0.00,,,0.00,VWS V14.01,2013-09-08 14:30:00,
2013-09-08 09:45:00,60.9,56.9,29.77,NE,45,3.0,8.0,87,0.00,,,0.00,VWS V14.01,2013-09-08 14:45:00,
2013-09-08 10:00:00,61.0,57.0,29.77,NE,45,2.0,8.0,87,0.00,,,0.00,VWS V14.01,2013-09-08 15:00:00,
2013-09-08 10:15:00,61.4,57.7,29.77,NE,45,2.0,7.0,88,0.00,,,0.00,VWS V14.01,2013-09-08 15:15:00,
2013-09-08 10:30:00,61.9,57.9,29.77,East,90,2.0,5.0,87,0.00,,,0.00,VWS V14.01,2013-09-08 15:30:00,
2013-09-08 10:45:00,62.3,58.3,29.77,ENE,68,2.0,6.0,87,0.00,,,0.00,VWS V14.01,2013-09-08 15:45:00,
2013-09-08 11:00:00,62.8,58.8,29.76,NE,45,2.0,5.0,87,0.00,,,0.00,VWS V14.01,2013-09-08 16:00:00,
2013-09-08 11:15:00,63.0,58.7,29.76,ENE,68,3.0,6.0,86,0.00,,,0.00,VWS V14.01,2013-09-08 16:15:00,
2013-09-08 11:30:00,63.3,59.0,29.75,ENE,68,2.0,6.0,86,0.00,,,0.00,VWS V14.01,2013-09-08 16:30:00,
2013-09-08 11:45:00,63.6,59.2,29.75,NE,45,2.0,6.0,86,0.00,,,0.00,VWS V14.01,2013-09-08 16:45:00,
2013-09-08 12:00:00,63.3,58.6,29.76,NE,45,2.0,7.0,85,0.00,,,0.00,VWS V14.01,2013-09-08 17:00:00,
2013-09-08 12:15:00,63.5,58.8,29.76,SE,135,4.0,7.0,85,0.00,,,0.00,VWS V14.01,2013-09-08 17:15:00,
2013-09-08 12:30:00,63.9,58.9,29.75,ESE,112,3.0,8.0,84,0.00,,,0.00,VWS V14.01,2013-09-08 17:30:00,
2013-09-08 12:45:00,64.4,59.7,29.75,SE,135,1.0,4.0,85,0.00,,,0.00,VWS V14.01,2013-09-08 17:45:00,
2013-09-08 13:00:00,64.6,58.9,29.74,SE,135,1.0,4.0,82,0.00,,,0.00,VWS V14.01,2013-09-08 18:00:00,
2013-09-08 13:15:00,64.8,59.4,29.74,ENE,68,1.0,4.0,83,0.00,,,0.00,VWS V14.01,2013-09-08 18:15:00,
2013-09-08 13:30:00,64.9,59.5,29.74,SE,135,1.0,5.0,83,0.00,,,0.00,VWS V14.01,2013-09-08 18:30:00,
2013-09-08 13:45:00,65.5,60.8,29.74,ESE,112,1.0,2.0,85,0.00,,,0.00,VWS V14.01,2013-09-08 18:45:00,
2013-09-08 14:00:00,65.8,60.7,29.74,East,90,1.0,3.0,84,0.00,,,0.00,VWS V14.01,2013-09-08 19:00:00,
2013-09-08 14:15:00,66.1,60.3,29.74,SE,135,1.0,5.0,82,0.00,,,0.00,VWS V14.01,2013-09-08 19:15:00,
2013-09-08 14:30:00,66.7,61.6,29.73,NNW,338,1.0,3.0,84,0.00,,,0.00,VWS V14.01,2013-09-08 19:30:00,
2013-09-08 14:45:00,66.9,61.1,29.73,NW,315,1.0,4.0,82,0.00,,,0.00,VWS V14.01,2013-09-08 19:45:00,
2013-09-08 15:00:00,66.7,61.6,29.72,NNE,22,1.0,3.0,84,0.00,,,0.00,VWS V14.01,2013-09-08 20:00:00,
2013-09-08 15:15:00,66.6,61.9,29.72,NNE,22,1.0,5.0,85,0.00,,,0.00,VWS V14.01,2013-09-08 20:15:00,
2013-09-08 15:30:00,66.5,61.4,29.71,NE,45,2.0,5.0,84,0.00,,,0.00,VWS V14.01,2013-09-08 20:30:00,
2013-09-08 15:45:00,66.4,61.3,29.71,NE,45,3.0,7.0,84,0.00,,,0.00,VWS V14.01,2013-09-08 20:45:00,
2013-09-08 16:00:00,67.3,62.5,29.70,NNE,22,2.0,5.0,85,0.00,,,0.00,VWS V14.01,2013-09-08 21:00:00,
2013-09-08 16:15:00,67.9,62.5,29.70,North,0,2.0,5.0,83,0.00,,,0.00,VWS V14.01,2013-09-08 21:15:00,
2013-09-08 16:30:00,68.4,62.2,29.70,NE,45,2.0,6.0,81,0.00,,,0.00,VWS V14.01,2013-09-08 21:30:00,
2013-09-08 16:45:00,69.2,63.0,29.69,NE,45,2.0,5.0,81,0.00,,,0.00,VWS V14.01,2013-09-08 21:45:00,
2013-09-08 17:00:00,69.7,63.5,29.69,NE,45,2.0,6.0,81,0.00,,,0.00,VWS V14.01,2013-09-08 22:00:00,
2013-09-08 17:15:00,70.1,63.2,29.68,ENE,68,2.0,5.0,79,0.00,,,0.00,VWS V14.01,2013-09-08 22:15:00,
2013-09-08 17:30:00,69.3,63.1,29.67,NE,45,2.0,5.0,81,0.00,,,0.00,VWS V14.01,2013-09-08 22:30:00,
2013-09-08 17:45:00,69.6,62.7,29.66,NE,45,2.0,6.0,79,0.00,,,0.00,VWS V14.01,2013-09-08 22:45:00,
2013-09-08 18:00:00,70.2,63.3,29.66,ENE,68,3.0,7.0,79,0.00,,,0.00,VWS V14.01,2013-09-08 23:00:00,
2013-09-08 18:15:00,70.0,63.8,29.65,ENE,68,3.0,7.0,81,0.00,,,0.00,VWS V14.01,2013-09-08 23:15:00,
2013-09-08 18:30:00,69.8,63.6,29.64,ENE,68,2.0,6.0,81,0.00,,,0.00,VWS V14.01,2013-09-08 23:30:00,
2013-09-08 18:45:00,69.5,63.7,29.63,NE,45,2.0,5.0,82,0.00,,,0.00,VWS V14.01,2013-09-08 23:45:00,
2013-09-08 19:00:00,69.7,64.2,29.63,ENE,68,2.0,6.0,83,0.00,,,0.00,VWS V14.01,2013-09-09 00:00:00,
2013-09-08 19:15:00,69.7,64.2,29.64,East,90,1.0,3.0,83,0.00,,,0.00,VWS V14.01,2013-09-09 00:15:00,
2013-09-08 19:30:00,69.5,64.0,29.63,NE,45,1.0,4.0,83,0.00,,,0.00,VWS V14.01,2013-09-09 00:30:00,
2013-09-08 19:45:00,69.2,64.1,29.63,NE,45,1.0,3.0,84,0.00,,,0.00,VWS V14.01,2013-09-09 00:45:00,
2013-09-08 20:00:00,69.0,63.9,29.63,NE,45,1.0,3.0,84,0.00,,,0.00,VWS V14.01,2013-09-09 01:00:00,
2013-09-08 20:15:00,68.7,63.9,29.63,NNE,22,1.0,3.0,85,0.00,,,0.00,VWS V14.01,2013-09-09 01:15:00,
2013-09-08 20:30:00,68.4,64.3,29.63,North,0,1.0,3.0,87,0.00,,,0.00,VWS V14.01,2013-09-09 01:30:00,
2013-09-08 20:45:00,68.0,63.9,29.64,NNE,22,1.0,5.0,87,0.00,,,0.00,VWS V14.01,2013-09-09 01:45:00,
2013-09-08 21:00:00,67.7,63.9,29.64,NNE,22,1.0,4.0,88,0.00,,,0.00,VWS V14.01,2013-09-09 02:00:00,
2013-09-08 21:15:00,67.1,64.0,29.63,North,0,3.0,6.0,90,0.00,,,0.00,VWS V14.01,2013-09-09 02:15:00,
2013-09-08 21:30:00,66.4,63.3,29.63,North,0,3.0,7.0,90,0.00,,,0.00,VWS V14.01,2013-09-09 02:30:00,
2013-09-08 21:45:00,65.8,63.0,29.62,North,0,3.0,9.0,91,0.00,,,0.00,VWS V14.01,2013-09-09 02:45:00,
2013-09-08 22:00:00,65.5,62.7,29.63,North,0,2.0,6.0,91,0.00,,,0.00,VWS V14.01,2013-09-09 03:00:00,
2013-09-08 22:15:00,65.2,62.4,29.62,North,0,3.0,6.0,91,0.00,,,0.00,VWS V14.01,2013-09-09 03:15:00,
2013-09-08 22:30:00,64.9,62.4,29.61,NNE,22,3.0,9.0,92,0.00,,,0.00,VWS V14.01,2013-09-09 03:30:00,
2013-09-08 22:45:00,64.6,62.1,29.60,North,0,3.0,7.0,92,0.00,,,0.00,VWS V14.01,2013-09-09 03:45:00,
2013-09-08 23:00:00,64.5,62.3,29.61,North,0,2.0,7.0,93,0.00,,,0.00,VWS V14.01,2013-09-09 04:00:00,
2013-09-08 23:15:00,64.5,62.3,29.60,North,0,2.0,4.0,93,0.00,,,0.00,VWS V14.01,2013-09-09 04:15:00,
2013-09-08 23:30:00,64.4,62.2,29.60,North,0,2.0,6.0,93,0.00,,,0.00,VWS V14.01,2013-09-09 04:30:00,
2013-09-08 23:45:00,64.4,62.2,29.60,NE,45,2.0,5.0,93,0.00,,,0.00,VWS V14.01,2013-09-09 04:45:00,